Time;durP1;ratioP1;P1;durP2;ratioP2;P2;SDS_P1;SDS_P2;PMS_P1;PMS_P2;Temp;Humidity;BMP_temperature;BMP_pressure;BME280_temperature;BME280_humidity;BME280_pressure;Samples;Min_cycle;Max_cycle;Signal;HPM_P1;HPM_P2
2021/09/04 00:02:47;;;;;;;12.10;11.07;;;21.40;96.70;;;;;;6073822;23;20394;-82
2021/09/04 00:05:31;;;;;;;13.77;12.30;;;21.40;96.80;;;;;;6167502;23;20466;-82
2021/09/04 00:08:37;;;;;;;;;;;;;;;;;;;;;
2021/09/04 00:12:07;;;;;;;18.23;13.40;;;21.30;97.10;;;;;;6122591;23;20426;-81
2021/09/04 00:15:26;;;;;;;12.67;11.47;;;21.40;98.20;;;;;;6129705;23;21123;-83
2021/09/04 00:18:55;;;;;;;;;;;;;;;;;;;;;
2021/09/04 00:22:02;;;;;;;;;;;;;;;;;;;;;
2021/09/04 00:25:23;;;;;;;14.10;12.40;;;21.30;99.90;;;;;;6117424;23;20432;-82
2021/09/04 00:29:13;;;;;;;13.47;12.07;;;21.20;99.90;;;;;;6109333;23;20406;-80
2021/09/04 00:39:59;;;;;;;13.47;12.27;;;21.00;99.90;;;;;;6049125;23;20616;-82
2021/09/04 00:43:23;;;;;;;13.33;11.97;;;21.00;99.90;;;;;;6041371;23;20478;-80
2021/09/04 00:46:44;;;;;;;15.53;12.70;;;20.90;99.90;;;;;;6064123;23;20460;-81
2021/09/04 00:50:21;;;;;;;13.53;12.30;;;20.80;99.90;;;;;;6010281;23;20519;-83
2021/09/04 00:53:35;;;;;;;14.53;13.10;;;20.80;99.90;;;;;;6075295;23;20471;-80
2021/09/04 00:56:38;;;;;;;14.23;12.37;;;20.80;99.90;;;;;;6093352;23;20396;-81
2021/09/04 00:59:58;;;;;;;;;;;;;;;;;;;;;
2021/09/04 01:03:38;;;;;;;;;;;;;;;;;;;;;
2021/09/04 01:07:00;;;;;;;14.70;13.30;;;20.80;99.90;;;;;;6092297;23;20443;-81
2021/09/04 01:10:46;;;;;;;14.00;12.70;;;20.60;99.90;;;;;;6092094;23;20463;-81
2021/09/04 01:14:26;;;;;;;;;;;;;;;;;;;;;
2021/09/04 01:17:40;;;;;;;13.67;12.37;;;20.30;99.90;;;;;;6092904;23;20491;-79
2021/09/04 01:21:05;;;;;;;11.70;10.60;;;20.40;99.90;;;;;;6092290;23;20488;-81
2021/09/04 01:24:46;;;;;;;12.30;11.03;;;20.60;99.90;;;;;;6091999;23;20523;-81
2021/09/04 01:27:46;;;;;;;13.67;12.37;;;20.50;99.90;;;;;;6060842;23;21410;-81
2021/09/04 01:31:26;;;;;;;;;;;;;;;;;;;;;
2021/09/04 01:34:29;;;;;;;13.50;11.80;;;19.90;99.90;;;;;;6091197;23;20468;-78
2021/09/04 01:37:36;;;;;;;13.37;11.93;;;19.60;99.90;;;;;;6088428;23;20456;-81
2021/09/04 01:40:26;;;;;;;12.97;11.53;;;19.70;99.90;;;;;;6094309;23;20420;-80
2021/09/04 01:43:30;;;;;;;13.80;12.47;;;19.80;99.90;;;;;;6087653;23;20400;-80
2021/09/04 01:49:37;;;;;;;12.97;11.60;;;19.60;99.90;;;;;;6078108;23;20492;-80
2021/09/04 01:53:12;;;;;;;13.97;12.40;;;19.50;99.90;;;;;;6093307;23;20439;-82
2021/09/04 01:56:25;;;;;;;13.17;11.80;;;19.50;99.90;;;;;;6125906;23;20407;-81
2021/09/04 01:59:39;;;;;;;;;;;;;;;;;;;;;
2021/09/04 02:02:37;;;;;;;14.10;11.60;;;19.50;99.90;;;;;;6124582;23;20411;-82
2021/09/04 02:05:31;;;;;;;13.77;12.30;;;19.50;99.90;;;;;;6119903;23;21123;-81
2021/09/04 02:08:17;;;;;;;13.13;11.83;;;19.50;99.90;;;;;;6117434;23;20758;-82
2021/09/04 02:11:39;;;;;;;13.67;12.27;;;19.60;99.90;;;;;;6112277;23;20439;-80
2021/09/04 02:14:43;;;;;;;13.30;11.97;;;19.50;99.90;;;;;;6120350;23;20466;-82
2021/09/04 02:21:08;;;;;;;14.90;12.10;;;19.30;99.90;;;;;;6121726;23;20423;-82
2021/09/04 02:24:37;;;;;;;;;;;;;;;;;;;;;
2021/09/04 02:31:26;;;;;;;;;;;;;;;;;;;;;
2021/09/04 02:34:35;;;;;;;12.87;11.07;;;19.30;99.90;;;;;;6129655;23;20432;-81
2021/09/04 02:37:32;;;;;;;12.60;11.40;;;19.20;99.90;;;;;;6110811;23;20514;-81
2021/09/04 02:43:48;;;;;;;13.10;11.70;;;18.90;99.90;;;;;;6112157;23;20420;-81
2021/09/04 02:50:48;;;;;;;13.37;12.03;;;18.70;99.90;;;;;;6049956;23;20778;-80
2021/09/04 02:53:51;;;;;;;;;;;;;;;;;;;;;
2021/09/04 02:57:09;;;;;;;;;;;;;;;;;;;;;
2021/09/04 03:03:26;;;;;;;11.80;10.60;;;18.80;99.90;;;;;;6055526;23;20452;-81
2021/09/04 03:06:44;;;;;;;12.33;10.50;;;18.80;99.90;;;;;;6125004;23;20415;-81
2021/09/04 03:10:10;;;;;;;12.70;11.40;;;18.80;99.90;;;;;;6050690;23;20403;-82
2021/09/04 03:13:23;;;;;;;12.73;11.33;;;18.90;99.90;;;;;;6132190;23;20418;-80
2021/09/04 03:16:14;;;;;;;11.80;10.63;;;18.70;99.90;;;;;;6135626;23;20411;-81
2021/09/04 03:19:12;;;;;;;;;;;;;;;;;;;;;
2021/09/04 03:22:17;;;;;;;11.20;10.00;;;18.40;99.90;;;;;;6150000;23;20481;-81
2021/09/04 03:25:22;;;;;;;12.87;10.63;;;18.60;99.90;;;;;;6127897;23;20427;-82
2021/09/04 03:27:58;;;;;;;12.63;11.40;;;18.50;99.90;;;;;;6149008;23;20402;-81
2021/09/04 03:31:05;;;;;;;14.10;10.60;;;18.50;99.90;;;;;;6147381;23;20426;-81
2021/09/04 03:34:04;;;;;;;13.20;11.80;;;18.40;99.90;;;;;;6175722;23;20427;-81
2021/09/04 03:37:13;;;;;;;;;;;;;;;;;;;;;
2021/09/04 03:40:00;;;;;;;14.67;10.83;;;18.40;99.90;;;;;;6152039;23;20413;-81
2021/09/04 03:43:01;;;;;;;13.90;11.47;;;18.40;99.90;;;;;;6127111;23;20968;-81
2021/09/04 03:45:51;;;;;;;12.60;11.40;;;18.20;99.90;;;;;;6125318;23;20906;-81
2021/09/04 03:48:20;;;;;;;11.80;10.70;;;18.20;99.90;;;;;;6147819;23;20445;-79
2021/09/04 03:50:55;;;;;;;12.60;11.30;;;18.20;99.90;;;;;;6124128;23;20398;-81
2021/09/04 03:53:34;;;;;;;;;;;;;;;;;;;;;
2021/09/04 03:56:09;;;;;;;11.40;10.20;;;18.30;99.90;;;;;;6146856;23;20442;-82
2021/09/04 03:58:41;;;;;;;11.43;10.33;;;18.30;99.90;;;;;;6124023;23;20526;-82
2021/09/04 04:01:16;;;;;;;12.13;10.87;;;18.20;99.90;;;;;;6122604;23;20418;-81
2021/09/04 04:03:45;;;;;;;12.47;11.27;;;18.20;99.90;;;;;;6120899;23;20487;-81
2021/09/04 04:06:12;;;;;;;13.63;11.67;;;18.30;99.90;;;;;;6146456;23;20501;-81
2021/09/04 04:08:57;;;;;;;14.37;10.90;;;18.20;99.90;;;;;;6146882;23;20422;-82
2021/09/04 04:11:36;;;;;;;12.70;11.43;;;18.10;99.90;;;;;;6147946;23;20415;-81
2021/09/04 04:14:03;;;;;;;12.50;11.07;;;18.00;99.90;;;;;;6121964;23;20808;-81
2021/09/04 04:16:36;;;;;;;13.53;11.50;;;18.20;99.90;;;;;;6151141;23;20418;-80
2021/09/04 04:19:24;;;;;;;11.07;10.00;;;18.00;99.90;;;;;;6125164;23;20466;-81
2021/09/04 04:22:25;;;;;;;12.50;10.30;;;17.90;99.90;;;;;;6123671;23;20414;-81
2021/09/04 04:25:09;;;;;;;12.07;10.70;;;17.70;99.90;;;;;;6118126;23;20502;-80
2021/09/04 04:27:49;;;;;;;11.47;10.33;;;17.60;99.90;;;;;;6122183;23;20422;-80
2021/09/04 04:30:20;;;;;;;15.03;11.70;;;17.70;99.90;;;;;;6122437;23;20714;-81
2021/09/04 04:33:06;;;;;;;11.87;10.67;;;17.70;99.90;;;;;;6121089;23;20996;-81
2021/09/04 04:35:40;;;;;;;14.47;11.07;;;17.90;99.90;;;;;;6123561;23;20395;-81
2021/09/04 04:38:28;;;;;;;14.07;11.07;;;17.80;99.90;;;;;;6124194;23;20473;-79
2021/09/04 04:41:11;;;;;;;;;;;;;;;;;;;;;
2021/09/04 04:43:42;;;;;;;11.50;10.07;;;18.00;99.90;;;;;;6148976;23;20493;-80
2021/09/04 04:46:20;;;;;;;13.53;12.13;;;18.00;99.90;;;;;;6146156;23;20399;-82
2021/09/04 04:48:56;;;;;;;12.50;11.20;;;17.80;99.90;;;;;;6152685;23;20419;-80
2021/09/04 04:51:30;;;;;;;13.73;11.80;;;17.60;99.90;;;;;;6124873;23;20422;-81
2021/09/04 04:54:16;;;;;;;11.67;10.50;;;17.60;99.90;;;;;;6124622;23;20776;-80
2021/09/04 04:57:00;;;;;;;12.87;10.13;;;17.70;99.90;;;;;;6125175;23;20415;-80
2021/09/04 04:59:53;;;;;;;13.23;11.10;;;17.70;99.90;;;;;;6124295;23;20410;-80
2021/09/04 05:02:31;;;;;;;12.33;10.47;;;17.70;99.90;;;;;;6150108;23;20469;-80
2021/09/04 05:05:05;;;;;;;15.63;12.17;;;17.70;99.90;;;;;;6126764;23;20439;-80
2021/09/04 05:07:36;;;;;;;12.70;11.50;;;17.70;99.90;;;;;;6168238;23;20405;-81
2021/09/04 05:10:09;;;;;;;11.40;10.30;;;17.60;99.90;;;;;;6173442;23;20427;-80
2021/09/04 05:12:43;;;;;;;13.63;12.17;;;17.50;99.90;;;;;;6148491;23;20410;-80
2021/09/04 05:15:10;;;;;;;15.40;13.20;;;17.50;99.90;;;;;;6146567;23;20454;-81
2021/09/04 05:17:39;;;;;;;13.33;11.93;;;17.50;99.90;;;;;;6144523;23;20470;-81
2021/09/04 05:20:42;;;;;;;12.93;11.43;;;17.50;99.90;;;;;;6122750;23;20399;-82
2021/09/04 05:23:24;;;;;;;12.87;11.50;;;17.40;99.90;;;;;;6146839;23;20431;-80
2021/09/04 05:26:15;;;;;;;11.70;10.53;;;17.40;99.90;;;;;;6147472;23;20403;-82
2021/09/04 05:29:30;;;;;;;11.77;10.47;;;17.40;99.90;;;;;;6122495;23;20426;-81
2021/09/04 05:32:24;;;;;;;13.90;11.13;;;17.50;99.90;;;;;;6124915;23;20411;-81
2021/09/04 05:35:12;;;;;;;12.93;11.50;;;17.50;99.90;;;;;;6147758;23;20449;-80
2021/09/04 05:37:47;;;;;;;11.63;10.33;;;17.50;99.90;;;;;;6122897;23;20442;-81
2021/09/04 05:40:55;;;;;;;;;;;;;;;;;;;;;
2021/09/04 05:43:45;;;;;;;16.27;12.63;;;17.60;99.90;;;;;;6148134;23;20437;-81
2021/09/04 05:46:27;;;;;;;12.90;11.30;;;17.80;99.90;;;;;;6148395;23;20446;-82
2021/09/04 05:49:04;;;;;;;13.13;11.80;;;17.90;99.90;;;;;;6122912;23;20415;-79
2021/09/04 05:51:36;;;;;;;14.87;12.47;;;17.80;99.90;;;;;;6148928;23;20415;-81
2021/09/04 05:54:14;;;;;;;14.60;13.10;;;17.80;99.90;;;;;;6122112;23;20435;-79
2021/09/04 05:57:06;;;;;;;12.30;11.10;;;17.80;99.90;;;;;;6122093;23;20414;-80
2021/09/04 05:59:59;;;;;;;14.47;12.13;;;17.70;99.90;;;;;;6122305;23;20490;-81
2021/09/04 06:02:32;;;;;;;12.90;11.60;;;17.70;99.90;;;;;;6123607;23;20422;-81
2021/09/04 06:05:15;;;;;;;15.37;12.67;;;17.70;99.90;;;;;;6124307;23;20508;-80
2021/09/04 06:07:45;;;;;;;14.53;11.10;;;19.30;99.90;;;;;;6127173;23;20407;-81
2021/09/04 06:10:43;;;;;;;12.43;11.20;;;21.50;99.90;;;;;;6126834;23;20400;-81
2021/09/04 06:13:23;;;;;;;14.80;12.53;;;23.40;95.40;;;;;;6147871;23;20414;-81
2021/09/04 06:16:44;;;;;;;;;;;;;;;;;;;;;
2021/09/04 06:19:51;;;;;;;11.57;10.37;;;25.10;91.30;;;;;;6148406;23;20481;-82
2021/09/04 06:23:06;;;;;;;11.30;10.20;;;25.90;88.30;;;;;;6128325;23;20410;-81
2021/09/04 06:26:21;;;;;;;11.70;10.53;;;26.50;85.20;;;;;;6148571;23;20457;-82
2021/09/04 06:29:41;;;;;;;;;;;;;;;;;;;;;
2021/09/04 06:35:57;;;;;;;;;;;;;;;;;;;;;
2021/09/04 06:38:44;;;;;;;11.60;10.40;;;29.10;71.50;;;;;;6146184;23;20462;-82
2021/09/04 06:42:06;;;;;;;;;;;;;;;;;;;;;
2021/09/04 06:49:03;;;;;;;11.50;10.40;;;29.80;65.70;;;;;;6112595;23;20437;-82
2021/09/04 06:52:10;;;;;;;11.93;10.27;;;30.40;62.70;;;;;;6141780;23;20777;-82
2021/09/04 06:58:20;;;;;;;;;;;;;;;;;;;;;
2021/09/04 07:01:41;;;;;;;11.10;9.67;;;30.80;59.40;;;;;;6149553;23;20429;-81
2021/09/04 07:04:52;;;;;;;10.83;9.80;;;30.60;58.60;;;;;;6126312;23;20521;-82
2021/09/04 07:07:47;;;;;;;12.03;10.57;;;29.50;61.30;;;;;;6148820;23;20775;-81
2021/09/04 07:10:45;;;;;;;11.53;10.53;;;29.90;60.30;;;;;;6137203;23;20502;-82
2021/09/04 07:13:33;;;;;;;10.87;9.90;;;30.90;58.20;;;;;;6123932;23;20551;-81
2021/09/04 07:16:16;;;;;;;11.57;10.57;;;31.10;57.80;;;;;;6126966;23;20418;-80
2021/09/04 07:19:11;;;;;;;10.20;9.40;;;32.10;55.50;;;;;;6123608;23;20466;-82
2021/09/04 07:22:27;;;;;;;10.40;9.50;;;32.00;55.20;;;;;;6116287;23;20477;-81
2021/09/04 07:25:16;;;;;;;11.13;10.20;;;32.20;54.70;;;;;;6150055;23;20522;-82
2021/09/04 07:28:10;;;;;;;11.00;10.00;;;33.00;53.40;;;;;;6122434;23;21124;-82
2021/09/04 07:31:02;;;;;;;9.93;9.13;;;32.80;53.00;;;;;;6123766;23;20421;-82
2021/09/04 07:34:07;;;;;;;12.30;10.03;;;33.80;50.70;;;;;;6124706;23;20437;-81
2021/09/04 07:40:14;;;;;;;10.77;9.87;;;33.10;51.00;;;;;;6129106;23;20779;-81
2021/09/04 07:43:13;;;;;;;;;;;;;;;;;;;;;
2021/09/04 07:46:25;;;;;;;11.37;10.37;;;33.10;49.90;;;;;;6047845;23;20418;-81
2021/09/04 07:49:50;;;;;;;;;;;;;;;;;;;;;
2021/09/04 07:52:51;;;;;;;15.30;14.00;;;34.00;48.60;;;;;;6026544;23;20414;-82
2021/09/04 07:55:57;;;;;;;11.17;10.27;;;33.20;49.40;;;;;;6026077;23;20954;-81
2021/09/04 07:59:09;;;;;;;10.40;9.60;;;33.60;48.80;;;;;;6025796;23;20437;-83
2021/09/04 08:01:47;;;;;;;12.00;10.90;;;34.50;47.20;;;;;;6029158;23;20466;-82
2021/09/04 08:04:32;;;;;;;;;;;;;;;;;;;;;
2021/09/04 08:07:29;;;;;;;11.63;10.63;;;35.50;45.00;;;;;;6148512;23;20478;-82
2021/09/04 08:10:34;;;;;;;10.53;9.63;;;36.10;44.00;;;;;;6124876;23;20450;-83
2021/09/04 08:13:10;;;;;;;11.40;10.50;;;35.80;43.80;;;;;;6150293;23;20414;-81
2021/09/04 08:19:38;;;;;;;12.37;11.20;;;35.00;45.20;;;;;;6086319;23;20445;-82
2021/09/04 08:22:50;;;;;;;13.10;11.97;;;36.30;43.50;;;;;;6066347;23;20448;-80
2021/09/04 08:25:33;;;;;;;12.90;11.80;;;36.30;42.60;;;;;;6066563;23;20606;-82
2021/09/04 08:29:19;;;;;;;12.90;11.77;;;35.90;43.10;;;;;;6089846;23;20444;-82
2021/09/04 08:35:05;;;;;;;13.00;11.73;;;35.80;43.50;;;;;;6040205;23;20435;-82
2021/09/04 08:41:27;;;;;;;12.20;11.20;;;36.00;42.30;;;;;;6091871;23;20502;-83
2021/09/04 08:44:36;;;;;;;13.67;11.80;;;36.30;42.00;;;;;;6041776;23;20481;-82
2021/09/04 08:47:37;;;;;;;;;;;;;;;;;;;;;
2021/09/04 08:50:53;;;;;;;13.30;12.13;;;35.80;42.50;;;;;;6084582;23;20737;-82
2021/09/04 08:54:03;;;;;;;12.20;11.10;;;35.40;43.00;;;;;;6098305;23;20452;-83
2021/09/04 08:57:01;;;;;;;11.53;10.37;;;35.80;42.50;;;;;;6180539;23;20417;-80
2021/09/04 09:03:17;;;;;;;;;;;;;;;;;;;;;
2021/09/04 09:07:02;;;;;;;;;;;;;;;;;;;;;
2021/09/04 09:10:24;;;;;;;12.70;11.50;;;35.10;42.90;;;;;;6146228;23;20500;-81
2021/09/04 09:13:37;;;;;;;12.30;11.40;;;35.40;42.40;;;;;;6034528;23;20409;-81
2021/09/04 09:16:55;;;;;;;11.97;10.97;;;35.60;42.30;;;;;;6052975;23;20407;-81
2021/09/04 09:20:08;;;;;;;10.80;10.00;;;35.50;41.50;;;;;;6117686;23;20447;-81
2021/09/04 09:23:37;;;;;;;11.30;10.40;;;34.60;43.30;;;;;;6110505;23;20391;-81
2021/09/04 09:26:45;;;;;;;;;;;;;;;;;;;;;
2021/09/04 09:29:52;;;;;;;10.97;10.07;;;34.90;43.20;;;;;;6115774;23;20495;-81
2021/09/04 09:33:34;;;;;;;12.03;10.47;;;34.70;43.40;;;;;;6092289;23;20409;-82
2021/09/04 09:37:26;;;;;;;11.40;10.40;;;35.10;42.30;;;;;;6147082;23;20404;-81
2021/09/04 09:40:26;;;;;;;14.13;11.13;;;34.70;42.70;;;;;;6148492;23;20423;-80
2021/09/04 09:43:55;;;;;;;;;;;;;;;;;;;;;
2021/09/04 09:47:27;;;;;;;;;;;;;;;;;;;;;
2021/09/04 09:50:13;;;;;;;;;;;;;;;;;;;;;
2021/09/04 09:53:46;;;;;;;17.67;12.30;;;33.90;43.50;;;;;;6090529;23;20405;-80
2021/09/04 09:57:04;;;;;;;;;;;;;;;;;;;;;
2021/09/04 10:00:10;;;;;;;;;;;;;;;;;;;;;
2021/09/04 10:03:38;;;;;;;12.80;11.80;;;34.30;43.70;;;;;;6002812;23;20400;-82
2021/09/04 10:11:15;;;;;;;;;;;;;;;;;;;;;
2021/09/04 10:14:28;;;;;;;;;;;;;;;;;;;;;
2021/09/04 10:17:39;;;;;;;12.20;11.10;;;35.00;42.00;;;;;;6068986;23;20406;-80
2021/09/04 10:23:55;;;;;;;10.60;9.60;;;34.40;42.40;;;;;;6033768;23;20504;-79
2021/09/04 10:27:42;;;;;;;11.70;10.70;;;34.00;43.40;;;;;;6078453;23;20548;-80
2021/09/04 10:34:55;;;;;;;;;;;;;;;;;;;;;
2021/09/04 10:38:14;;;;;;;12.87;11.77;;;34.40;42.60;;;;;;6152092;23;20501;-81
2021/09/04 10:41:20;;;;;;;11.83;10.83;;;34.10;43.00;;;;;;6179463;23;20410;-82
2021/09/04 10:44:14;;;;;;;12.80;11.70;;;33.90;44.00;;;;;;6172224;23;20493;-82
2021/09/04 10:46:57;;;;;;;11.20;10.20;;;33.30;44.80;;;;;;6176791;23;20701;-81
2021/09/04 10:49:56;;;;;;;;;;;;;;;;;;;;;
2021/09/04 10:52:59;;;;;;;10.60;9.60;;;33.30;45.00;;;;;;6177041;23;20468;-81
2021/09/04 10:56:04;;;;;;;11.03;10.10;;;34.30;43.70;;;;;;6176758;23;21250;-80
2021/09/04 10:59:15;;;;;;;11.90;10.80;;;34.20;43.80;;;;;;6175733;23;21174;-83
2021/09/04 11:02:10;;;;;;;11.20;10.13;;;34.20;44.60;;;;;;6175743;23;20418;-82
2021/09/04 11:04:57;;;;;;;11.47;10.37;;;33.60;45.10;;;;;;6177652;23;20444;-81
2021/09/04 11:11:53;;;;;;;11.03;10.03;;;33.30;45.30;;;;;;6116901;23;20406;-79
2021/09/04 11:15:03;;;;;;;11.30;10.20;;;33.10;46.30;;;;;;6179972;23;20512;-79
2021/09/04 11:21:35;;;;;;;10.37;9.57;;;32.70;46.80;;;;;;6169112;23;20497;-82
2021/09/04 11:24:20;;;;;;;9.57;8.67;;;32.90;45.90;;;;;;6199926;23;20468;-81
2021/09/04 11:27:22;;;;;;;9.47;8.60;;;32.80;46.10;;;;;;6177164;23;20466;-81
2021/09/04 11:33:27;;;;;;;9.20;8.40;;;32.70;45.60;;;;;;6166872;23;20412;-81
2021/09/04 11:36:50;;;;;;;9.33;8.20;;;32.80;45.00;;;;;;6175941;23;20417;-82
2021/09/04 11:39:44;;;;;;;8.90;8.20;;;33.00;45.40;;;;;;6156639;23;20428;-80
2021/09/04 11:43:05;;;;;;;8.67;7.87;;;32.90;44.30;;;;;;6177825;23;20502;-82
2021/09/04 11:46:06;;;;;;;8.43;7.73;;;33.00;44.50;;;;;;6176068;23;20414;-81
2021/09/04 11:48:53;;;;;;;8.80;8.10;;;33.00;44.20;;;;;;6175812;23;20417;-81
2021/09/04 11:51:30;;;;;;;8.90;8.30;;;33.00;43.40;;;;;;6175815;23;20409;-80
2021/09/04 11:54:35;;;;;;;9.47;8.63;;;32.60;45.00;;;;;;6176442;23;20437;-82
2021/09/04 11:57:38;;;;;;;8.33;7.63;;;32.30;45.20;;;;;;6177424;23;20421;-82
2021/09/04 12:00:45;;;;;;;8.77;7.87;;;32.40;45.50;;;;;;6176037;23;20422;-82
2021/09/04 12:06:38;;;;;;;8.53;7.33;;;32.90;43.60;;;;;;6111140;23;20408;-81
2021/09/04 12:09:33;;;;;;;7.53;6.70;;;32.50;44.50;;;;;;6176555;23;21282;-82
2021/09/04 12:12:49;;;;;;;;;;;;;;;;;;;;;
2021/09/04 12:15:36;;;;;;;7.20;6.70;;;32.90;43.00;;;;;;6177509;23;20414;-82
2021/09/04 12:19:00;;;;;;;7.77;6.60;;;33.50;41.30;;;;;;6176216;23;20475;-81
2021/09/04 12:22:25;;;;;;;;;;;;;;;;;;;;;
2021/09/04 12:25:52;;;;;;;9.33;8.53;;;33.40;42.20;;;;;;6057719;23;20482;-81
2021/09/04 12:28:45;;;;;;;8.73;7.80;;;32.60;43.60;;;;;;6057874;23;20402;-82
2021/09/04 12:31:32;;;;;;;8.50;7.20;;;32.60;43.90;;;;;;6175992;23;20418;-82
2021/09/04 12:34:44;;;;;;;7.00;6.40;;;32.70;43.80;;;;;;6195624;23;20406;-83
2021/09/04 12:37:51;;;;;;;7.87;6.53;;;32.70;43.70;;;;;;6175244;23;20408;-81
2021/09/04 12:40:46;;;;;;;7.10;6.20;;;32.10;44.40;;;;;;6180822;23;20500;-79
2021/09/04 12:43:52;;;;;;;7.30;6.70;;;32.50;43.60;;;;;;6156250;23;20512;-79
2021/09/04 12:46:54;;;;;;;7.30;6.60;;;32.20;44.50;;;;;;6179129;23;21187;-80
2021/09/04 12:49:27;;;;;;;6.83;6.33;;;32.40;43.80;;;;;;6174529;23;20448;-82
2021/09/04 12:52:37;;;;;;;6.80;6.10;;;32.50;43.80;;;;;;6177143;23;20409;-81
2021/09/04 12:55:42;;;;;;;7.60;6.90;;;33.30;42.60;;;;;;6177248;23;20442;-81
2021/09/04 13:02:15;;;;;;;8.20;7.50;;;33.30;42.70;;;;;;6173531;23;20402;-82
2021/09/04 13:05:02;;;;;;;7.60;7.00;;;33.10;43.90;;;;;;6175954;23;20920;-79
2021/09/04 13:08:16;;;;;;;;;;;;;;;;;;;;;
2021/09/04 13:11:44;;;;;;;8.17;7.37;;;32.90;43.30;;;;;;6179375;23;20524;-81
2021/09/04 13:14:35;;;;;;;7.90;7.27;;;31.80;45.40;;;;;;6179848;23;20441;-81
2021/09/04 13:17:41;;;;;;;8.80;7.90;;;31.60;47.00;;;;;;6147430;23;20433;-82
2021/09/04 13:20:27;;;;;;;9.07;8.27;;;31.40;47.70;;;;;;6178544;23;20414;-81
2021/09/04 13:23:06;;;;;;;9.27;8.43;;;31.10;48.70;;;;;;6178115;23;20418;-82
2021/09/04 13:25:51;;;;;;;8.60;7.90;;;31.00;49.30;;;;;;6178045;23;20413;-82
2021/09/04 13:28:17;;;;;;;8.90;8.20;;;30.90;49.90;;;;;;6178888;23;20802;-82
2021/09/04 13:30:44;;;;;;;8.90;8.10;;;30.70;50.40;;;;;;6179774;23;20477;-83
2021/09/04 13:33:11;;;;;;;11.37;10.27;;;30.40;50.80;;;;;;6179226;23;20496;-82
2021/09/04 13:35:39;;;;;;;11.43;9.53;;;30.10;51.70;;;;;;6180872;23;20441;-83
2021/09/04 13:38:06;;;;;;;10.07;9.07;;;29.80;53.00;;;;;;6180224;23;20418;-82
2021/09/04 13:40:33;;;;;;;9.23;8.20;;;29.80;52.80;;;;;;6180525;23;20482;-84
2021/09/04 13:43:00;;;;;;;8.33;7.53;;;30.00;52.70;;;;;;6179973;23;20637;-85
2021/09/04 13:45:27;;;;;;;9.60;8.70;;;30.40;52.30;;;;;;6181455;23;20448;-83
2021/09/04 13:47:56;;;;;;;9.97;8.23;;;30.90;51.80;;;;;;6177930;23;20979;-81
2021/09/04 13:50:23;;;;;;;12.93;8.53;;;31.20;50.60;;;;;;6178916;23;20450;-83
2021/09/04 13:52:50;;;;;;;7.73;6.93;;;31.20;50.80;;;;;;6179873;23;20640;-83
2021/09/04 13:55:17;;;;;;;9.17;8.43;;;31.20;50.60;;;;;;6181068;23;20462;-83
2021/09/04 13:57:46;;;;;;;8.93;8.10;;;31.40;50.50;;;;;;6178171;23;20409;-83
2021/09/04 14:00:14;;;;;;;8.60;7.90;;;31.50;49.70;;;;;;6177599;23;20903;-82
2021/09/04 14:02:42;;;;;;;9.60;8.80;;;31.40;49.90;;;;;;6176963;23;20733;-83
2021/09/04 14:05:09;;;;;;;9.20;8.30;;;31.00;50.30;;;;;;6178294;23;20460;-83
2021/09/04 14:07:36;;;;;;;9.67;8.87;;;31.00;50.30;;;;;;6180755;23;20420;-82
2021/09/04 14:10:04;;;;;;;9.33;8.50;;;31.00;50.30;;;;;;6178335;23;20783;-83
2021/09/04 14:12:31;;;;;;;9.23;8.43;;;30.50;51.20;;;;;;6178274;23;20753;-82
2021/09/04 14:14:58;;;;;;;9.50;8.50;;;30.30;52.40;;;;;;6180237;23;20736;-83
2021/09/04 14:17:25;;;;;;;10.40;9.40;;;30.00;52.10;;;;;;6180960;23;20441;-83
2021/09/04 14:19:53;;;;;;;12.30;11.20;;;29.90;52.60;;;;;;6182690;23;20478;-84
2021/09/04 14:22:20;;;;;;;10.70;9.70;;;29.80;52.70;;;;;;6186183;23;20479;-83
2021/09/04 14:24:48;;;;;;;10.00;9.20;;;29.80;52.80;;;;;;6182832;23;20438;-83
2021/09/04 14:27:15;;;;;;;11.03;9.20;;;30.00;53.00;;;;;;6179388;23;20494;-82
2021/09/04 14:29:41;;;;;;;9.83;8.93;;;29.70;53.00;;;;;;6181150;23;20478;-83
2021/09/04 14:32:08;;;;;;;10.13;9.00;;;29.70;53.60;;;;;;6181071;23;20420;-82
2021/09/04 14:34:35;;;;;;;10.43;8.30;;;29.70;53.50;;;;;;6179332;23;20434;-81
2021/09/04 14:37:01;;;;;;;8.60;7.70;;;30.00;53.10;;;;;;6176589;23;20421;-81
2021/09/04 14:39:28;;;;;;;10.30;8.60;;;29.90;53.30;;;;;;6176491;23;20913;-84
2021/09/04 14:41:55;;;;;;;9.50;8.70;;;29.90;53.50;;;;;;6180154;23;20397;-84
2021/09/04 14:44:21;;;;;;;8.70;8.00;;;29.90;53.70;;;;;;6178328;23;20493;-82
2021/09/04 14:46:48;;;;;;;9.97;9.10;;;30.30;53.00;;;;;;6179843;23;20758;-81
2021/09/04 14:49:15;;;;;;;9.53;8.73;;;30.40;52.80;;;;;;6183743;23;20429;-83
2021/09/04 14:51:42;;;;;;;10.17;8.80;;;30.20;53.30;;;;;;6177592;23;20413;-82
2021/09/04 14:54:11;;;;;;;9.57;8.77;;;30.30;53.20;;;;;;6176948;23;20521;-80
2021/09/04 14:56:38;;;;;;;9.40;8.60;;;30.00;53.20;;;;;;6177679;23;20409;-79
2021/09/04 14:59:05;;;;;;;8.80;8.00;;;29.80;53.30;;;;;;6178591;23;20410;-79
2021/09/04 15:01:32;;;;;;;10.67;9.07;;;29.60;53.90;;;;;;6179818;23;20410;-81
2021/09/04 15:04:00;;;;;;;9.07;8.27;;;29.50;54.00;;;;;;6179400;23;20459;-80
2021/09/04 15:06:30;;;;;;;8.77;7.90;;;29.60;54.10;;;;;;6186615;23;20398;-82
2021/09/04 15:09:17;;;;;;;9.47;8.57;;;29.60;53.80;;;;;;6198138;23;20403;-82
2021/09/04 15:12:51;;;;;;;;;;;;;;;;;;;;;
2021/09/04 15:15:36;;;;;;;9.43;8.53;;;29.50;53.70;;;;;;6167833;23;20433;-81
2021/09/04 15:18:44;;;;;;;14.73;8.57;;;29.50;53.80;;;;;;6147457;23;20418;-82
2021/09/04 15:21:56;;;;;;;9.37;8.23;;;29.50;53.60;;;;;;6076191;23;20427;-81
2021/09/04 15:25:08;;;;;;;;;;;;;;;;;;;;;
2021/09/04 15:28:01;;;;;;;10.70;8.63;;;29.40;53.60;;;;;;6070054;23;20409;-80
2021/09/04 15:31:02;;;;;;;;;;;;;;;;;;;;;
2021/09/04 15:33:32;;;;;;;9.80;8.90;;;29.20;53.60;;;;;;6088687;23;20448;-81
2021/09/04 15:35:59;;;;;;;10.80;8.97;;;29.10;54.30;;;;;;6128800;23;20398;-82
2021/09/04 15:38:25;;;;;;;9.37;8.57;;;29.10;54.70;;;;;;6203899;23;20422;-83
2021/09/04 15:40:53;;;;;;;8.50;7.70;;;29.00;55.00;;;;;;6203664;23;20410;-82
2021/09/04 15:43:19;;;;;;;8.47;7.67;;;28.90;54.90;;;;;;6203118;23;20402;-80
2021/09/04 15:45:47;;;;;;;13.33;12.03;;;29.10;53.10;;;;;;6189561;23;20472;-81
2021/09/04 15:48:14;;;;;;;13.93;12.63;;;28.90;53.90;;;;;;6176518;23;20747;-83
2021/09/04 15:50:40;;;;;;;10.17;9.27;;;28.90;53.90;;;;;;6178383;23;20817;-82
2021/09/04 15:53:08;;;;;;;9.30;8.50;;;28.80;54.90;;;;;;6177745;23;20416;-81
2021/09/04 15:55:36;;;;;;;9.70;8.60;;;28.60;55.80;;;;;;6177266;23;20492;-81
2021/09/04 15:58:03;;;;;;;8.43;7.73;;;28.70;55.70;;;;;;6179206;23;20406;-83
2021/09/04 16:00:30;;;;;;;8.73;8.03;;;28.60;56.00;;;;;;6179090;23;20995;-81
2021/09/04 16:02:58;;;;;;;8.23;7.53;;;28.60;56.50;;;;;;6175985;23;20410;-81
2021/09/04 16:05:25;;;;;;;9.50;8.43;;;28.70;55.80;;;;;;6179379;23;20457;-81
2021/09/04 16:07:51;;;;;;;8.83;8.03;;;28.50;56.20;;;;;;6178468;23;20406;-82
2021/09/04 16:10:18;;;;;;;9.33;8.30;;;28.20;57.10;;;;;;6179018;23;20453;-82
2021/09/04 16:12:45;;;;;;;9.13;8.20;;;28.00;57.70;;;;;;6176353;23;20421;-81
2021/09/04 16:15:12;;;;;;;9.67;8.87;;;28.10;57.60;;;;;;6177848;23;20434;-82
2021/09/04 16:17:39;;;;;;;9.60;8.70;;;28.10;58.30;;;;;;6178469;23;20410;-81
2021/09/04 16:20:08;;;;;;;11.37;9.27;;;28.10;58.70;;;;;;6176313;23;20426;-82
2021/09/04 16:22:35;;;;;;;10.10;8.93;;;28.00;59.50;;;;;;6177869;23;20444;-81
2021/09/04 16:25:02;;;;;;;9.90;9.00;;;28.00;59.20;;;;;;6178206;23;20940;-83
2021/09/04 16:27:29;;;;;;;10.80;9.70;;;27.80;59.70;;;;;;6177177;23;20429;-81
2021/09/04 16:29:56;;;;;;;11.30;10.10;;;27.80;59.70;;;;;;6174542;23;20425;-81
2021/09/04 16:32:23;;;;;;;11.37;10.20;;;27.60;59.90;;;;;;6176332;23;20416;-82
2021/09/04 16:34:50;;;;;;;10.97;9.73;;;27.40;61.00;;;;;;6177987;23;20675;-82
2021/09/04 16:37:17;;;;;;;10.37;9.30;;;27.30;60.90;;;;;;6171985;23;21721;-82
2021/09/04 16:39:44;;;;;;;10.50;9.40;;;27.50;61.00;;;;;;6177504;23;21233;-82
2021/09/04 16:42:12;;;;;;;10.67;9.63;;;27.40;60.60;;;;;;6179813;23;20418;-82
2021/09/04 16:44:39;;;;;;;11.17;9.97;;;27.40;61.60;;;;;;6178556;23;20477;-83
2021/09/04 16:47:05;;;;;;;10.90;9.90;;;27.30;61.90;;;;;;6179547;23;20414;-82
2021/09/04 16:49:32;;;;;;;10.33;9.33;;;27.10;62.70;;;;;;6178821;23;20469;-82
2021/09/04 16:51:59;;;;;;;14.77;11.27;;;27.10;63.90;;;;;;6180349;23;20450;-82
2021/09/04 16:54:25;;;;;;;10.63;9.53;;;26.90;64.40;;;;;;6178862;23;20461;-82
2021/09/04 16:56:52;;;;;;;12.30;10.40;;;26.90;64.90;;;;;;6181087;23;20437;-82
2021/09/04 16:59:19;;;;;;;12.00;9.90;;;26.80;65.70;;;;;;6180392;23;21360;-82
2021/09/04 17:01:46;;;;;;;14.53;10.23;;;26.80;65.90;;;;;;6179930;23;20569;-82
2021/09/04 17:04:13;;;;;;;11.07;9.80;;;26.80;66.10;;;;;;6176656;23;20472;-81
2021/09/04 17:06:40;;;;;;;11.07;9.97;;;26.70;66.20;;;;;;6181453;23;20448;-83
2021/09/04 17:09:07;;;;;;;12.57;11.37;;;26.50;66.40;;;;;;6177991;23;20892;-82